sensor_id;sensor_type;location;lat;lon;timestamp;temperature;humidity
19552;DHT22;9921;47.186;9.778;2023-11-19T00:00:27;7.40;99.90
19552;DHT22;9921;47.186;9.778;2023-11-19T00:02:54;7.40;99.90
19552;DHT22;9921;47.186;9.778;2023-11-19T00:05:23;7.40;99.90
19552;DHT22;9921;47.186;9.778;2023-11-19T00:07:49;7.40;99.90
19552;DHT22;9921;47.186;9.778;2023-11-19T00:10:17;7.40;99.90
19552;DHT22;9921;47.186;9.778;2023-11-19T00:12:47;7.40;99.90
19552;DHT22;9921;47.186;9.778;2023-11-19T00:15:14;7.40;99.90
19552;DHT22;9921;47.186;9.778;2023-11-19T00:17:42;7.40;99.90
19552;DHT22;9921;47.186;9.778;2023-11-19T00:20:10;7.50;99.90
19552;DHT22;9921;47.186;9.778;2023-11-19T00:22:39;7.50;99.90
19552;DHT22;9921;47.186;9.778;2023-11-19T00:25:07;7.50;99.90
19552;DHT22;9921;47.186;9.778;2023-11-19T00:27:34;7.50;99.90
19552;DHT22;9921;47.186;9.778;2023-11-19T00:30:03;7.40;99.90
19552;DHT22;9921;47.186;9.778;2023-11-19T00:32:31;7.50;99.90
19552;DHT22;9921;47.186;9.778;2023-11-19T00:34:58;7.50;99.90
19552;DHT22;9921;47.186;9.778;2023-11-19T00:37:25;7.50;99.90
19552;DHT22;9921;47.186;9.778;2023-11-19T00:39:53;7.50;99.90
19552;DHT22;9921;47.186;9.778;2023-11-19T00:42:21;7.50;99.90
19552;DHT22;9921;47.186;9.778;2023-11-19T00:44:49;7.60;99.90
19552;DHT22;9921;47.186;9.778;2023-11-19T00:47:16;7.60;99.90
19552;DHT22;9921;47.186;9.778;2023-11-19T00:49:46;7.60;99.90
19552;DHT22;9921;47.186;9.778;2023-11-19T00:52:14;7.60;99.90
19552;DHT22;9921;47.186;9.778;2023-11-19T00:54:40;7.60;99.90
19552;DHT22;9921;47.186;9.778;2023-11-19T00:57:09;7.70;99.90
19552;DHT22;9921;47.186;9.778;2023-11-19T00:59:35;7.70;99.90
19552;DHT22;9921;47.186;9.778;2023-11-19T01:02:03;7.80;99.90
19552;DHT22;9921;47.186;9.778;2023-11-19T01:04:33;7.80;99.90
19552;DHT22;9921;47.186;9.778;2023-11-19T01:07:01;7.80;99.90
19552;DHT22;9921;47.186;9.778;2023-11-19T01:09:29;7.80;99.90
19552;DHT22;9921;47.186;9.778;2023-11-19T01:11:57;7.80;99.90
19552;DHT22;9921;47.186;9.778;2023-11-19T01:14:27;7.80;99.90
19552;DHT22;9921;47.186;9.778;2023-11-19T01:16:54;7.80;99.90
19552;DHT22;9921;47.186;9.778;2023-11-19T01:19:21;7.80;99.90
19552;DHT22;9921;47.186;9.778;2023-11-19T01:21:48;7.80;99.90
19552;DHT22;9921;47.186;9.778;2023-11-19T01:24:15;7.80;99.90
19552;DHT22;9921;47.186;9.778;2023-11-19T01:26:43;7.80;99.90
19552;DHT22;9921;47.186;9.778;2023-11-19T01:29:11;7.70;99.90
19552;DHT22;9921;47.186;9.778;2023-11-19T01:31:40;7.70;99.90
19552;DHT22;9921;47.186;9.778;2023-11-19T01:34:08;7.60;99.90
19552;DHT22;9921;47.186;9.778;2023-11-19T01:36:34;7.60;99.90
19552;DHT22;9921;47.186;9.778;2023-11-19T01:39:01;7.60;99.90
19552;DHT22;9921;47.186;9.778;2023-11-19T01:41:29;7.60;99.90
19552;DHT22;9921;47.186;9.778;2023-11-19T01:43:56;7.60;99.90
19552;DHT22;9921;47.186;9.778;2023-11-19T01:46:24;7.60;99.90
19552;DHT22;9921;47.186;9.778;2023-11-19T01:48:53;7.60;99.90
19552;DHT22;9921;47.186;9.778;2023-11-19T01:51:21;7.60;99.90
19552;DHT22;9921;47.186;9.778;2023-11-19T01:53:49;7.60;99.90
19552;DHT22;9921;47.186;9.778;2023-11-19T01:56:16;7.60;99.90
19552;DHT22;9921;47.186;9.778;2023-11-19T01:58:45;7.60;99.90
19552;DHT22;9921;47.186;9.778;2023-11-19T02:01:13;7.50;99.90
19552;DHT22;9921;47.186;9.778;2023-11-19T02:03:41;7.50;99.90
19552;DHT22;9921;47.186;9.778;2023-11-19T02:06:10;7.50;99.90
19552;DHT22;9921;47.186;9.778;2023-11-19T02:08:37;7.50;99.90
19552;DHT22;9921;47.186;9.778;2023-11-19T02:11:05;7.50;99.90
19552;DHT22;9921;47.186;9.778;2023-11-19T02:13:32;7.50;99.90
19552;DHT22;9921;47.186;9.778;2023-11-19T02:16:01;7.50;99.90
19552;DHT22;9921;47.186;9.778;2023-11-19T02:18:29;7.50;99.90
19552;DHT22;9921;47.186;9.778;2023-11-19T02:20:56;7.50;99.90
19552;DHT22;9921;47.186;9.778;2023-11-19T02:23:26;7.50;99.90
19552;DHT22;9921;47.186;9.778;2023-11-19T02:26:00;7.50;99.90
19552;DHT22;9921;47.186;9.778;2023-11-19T02:28:30;7.50;99.90
19552;DHT22;9921;47.186;9.778;2023-11-19T02:30:58;7.40;99.90
19552;DHT22;9921;47.186;9.778;2023-11-19T02:33:25;7.40;99.90
19552;DHT22;9921;47.186;9.778;2023-11-19T02:35:52;7.40;99.90
19552;DHT22;9921;47.186;9.778;2023-11-19T02:38:18;7.40;99.90
19552;DHT22;9921;47.186;9.778;2023-11-19T02:40:47;7.40;99.90
19552;DHT22;9921;47.186;9.778;2023-11-19T02:43:14;7.40;99.90
19552;DHT22;9921;47.186;9.778;2023-11-19T02:45:43;7.40;99.90
19552;DHT22;9921;47.186;9.778;2023-11-19T02:48:11;7.30;99.90
19552;DHT22;9921;47.186;9.778;2023-11-19T02:50:39;7.30;99.90
19552;DHT22;9921;47.186;9.778;2023-11-19T02:53:06;7.30;99.90
19552;DHT22;9921;47.186;9.778;2023-11-19T02:55:33;7.30;99.90
19552;DHT22;9921;47.186;9.778;2023-11-19T02:58:03;7.30;99.90
19552;DHT22;9921;47.186;9.778;2023-11-19T03:00:35;7.30;99.90
19552;DHT22;9921;47.186;9.778;2023-11-19T03:03:09;7.40;99.90
19552;DHT22;9921;47.186;9.778;2023-11-19T03:05:45;7.40;99.90
19552;DHT22;9921;47.186;9.778;2023-11-19T03:08:14;7.40;99.90
19552;DHT22;9921;47.186;9.778;2023-11-19T03:10:41;7.40;99.90
19552;DHT22;9921;47.186;9.778;2023-11-19T03:13:11;7.40;99.90
19552;DHT22;9921;47.186;9.778;2023-11-19T03:15:39;7.40;99.90
19552;DHT22;9921;47.186;9.778;2023-11-19T03:18:06;7.40;99.90
19552;DHT22;9921;47.186;9.778;2023-11-19T03:20:34;7.40;99.90
19552;DHT22;9921;47.186;9.778;2023-11-19T03:23:01;7.50;99.90
19552;DHT22;9921;47.186;9.778;2023-11-19T03:25:28;7.50;99.90
19552;DHT22;9921;47.186;9.778;2023-11-19T03:27:59;7.50;99.90
19552;DHT22;9921;47.186;9.778;2023-11-19T03:30:26;7.50;99.90
19552;DHT22;9921;47.186;9.778;2023-11-19T03:32:54;7.50;99.90
19552;DHT22;9921;47.186;9.778;2023-11-19T03:35:21;7.50;99.90
19552;DHT22;9921;47.186;9.778;2023-11-19T03:37:49;7.50;99.90
19552;DHT22;9921;47.186;9.778;2023-11-19T03:40:16;7.50;99.90
19552;DHT22;9921;47.186;9.778;2023-11-19T03:42:44;7.50;99.90
19552;DHT22;9921;47.186;9.778;2023-11-19T03:45:11;7.50;99.90
19552;DHT22;9921;47.186;9.778;2023-11-19T03:47:38;7.50;99.90
19552;DHT22;9921;47.186;9.778;2023-11-19T03:50:06;7.50;99.90
19552;DHT22;9921;47.186;9.778;2023-11-19T03:52:34;7.60;99.90
19552;DHT22;9921;47.186;9.778;2023-11-19T03:55:02;7.60;99.90
19552;DHT22;9921;47.186;9.778;2023-11-19T03:57:30;7.70;99.90
19552;DHT22;9921;47.186;9.778;2023-11-19T03:59:57;7.80;99.90
19552;DHT22;9921;47.186;9.778;2023-11-19T04:02:25;7.80;99.90
19552;DHT22;9921;47.186;9.778;2023-11-19T04:04:53;7.80;99.90
19552;DHT22;9921;47.186;9.778;2023-11-19T04:07:21;7.90;99.90
19552;DHT22;9921;47.186;9.778;2023-11-19T04:09:47;7.90;99.90
19552;DHT22;9921;47.186;9.778;2023-11-19T04:12:16;7.90;99.90
19552;DHT22;9921;47.186;9.778;2023-11-19T04:14:43;8.00;99.90
19552;DHT22;9921;47.186;9.778;2023-11-19T04:17:09;8.00;99.90
19552;DHT22;9921;47.186;9.778;2023-11-19T04:19:36;8.10;99.90
19552;DHT22;9921;47.186;9.778;2023-11-19T04:22:06;8.10;99.90
19552;DHT22;9921;47.186;9.778;2023-11-19T04:24:33;8.10;99.90
19552;DHT22;9921;47.186;9.778;2023-11-19T04:27:00;8.10;99.90
19552;DHT22;9921;47.186;9.778;2023-11-19T04:29:30;8.10;99.90
19552;DHT22;9921;47.186;9.778;2023-11-19T04:31:57;8.20;99.90
19552;DHT22;9921;47.186;9.778;2023-11-19T04:34:24;8.20;99.90
19552;DHT22;9921;47.186;9.778;2023-11-19T04:36:51;8.20;99.90
19552;DHT22;9921;47.186;9.778;2023-11-19T04:39:18;8.20;99.90
19552;DHT22;9921;47.186;9.778;2023-11-19T04:41:48;8.20;99.90
19552;DHT22;9921;47.186;9.778;2023-11-19T04:44:16;8.20;99.90
19552;DHT22;9921;47.186;9.778;2023-11-19T04:46:44;8.20;99.90
19552;DHT22;9921;47.186;9.778;2023-11-19T04:49:11;8.20;99.90
19552;DHT22;9921;47.186;9.778;2023-11-19T04:51:39;8.20;99.90
19552;DHT22;9921;47.186;9.778;2023-11-19T04:54:07;8.20;99.90
19552;DHT22;9921;47.186;9.778;2023-11-19T04:56:34;8.20;99.90
19552;DHT22;9921;47.186;9.778;2023-11-19T04:59:02;8.20;99.90
19552;DHT22;9921;47.186;9.778;2023-11-19T05:01:29;8.20;99.90
19552;DHT22;9921;47.186;9.778;2023-11-19T05:03:57;8.20;99.90
19552;DHT22;9921;47.186;9.778;2023-11-19T05:06:26;8.20;99.90
19552;DHT22;9921;47.186;9.778;2023-11-19T05:08:54;8.10;99.90
19552;DHT22;9921;47.186;9.778;2023-11-19T05:11:21;8.20;99.90
19552;DHT22;9921;47.186;9.778;2023-11-19T05:13:48;8.20;99.90
19552;DHT22;9921;47.186;9.778;2023-11-19T05:16:15;8.10;99.90
19552;DHT22;9921;47.186;9.778;2023-11-19T05:18:43;8.10;99.90
19552;DHT22;9921;47.186;9.778;2023-11-19T05:21:11;8.10;99.90
19552;DHT22;9921;47.186;9.778;2023-11-19T05:23:38;8.10;99.90
19552;DHT22;9921;47.186;9.778;2023-11-19T05:26:05;8.10;99.90
19552;DHT22;9921;47.186;9.778;2023-11-19T05:28:32;8.10;99.90
19552;DHT22;9921;47.186;9.778;2023-11-19T05:30:59;8.10;99.90
19552;DHT22;9921;47.186;9.778;2023-11-19T05:33:26;8.10;99.90
19552;DHT22;9921;47.186;9.778;2023-11-19T05:35:52;8.10;99.90
19552;DHT22;9921;47.186;9.778;2023-11-19T05:38:21;8.10;99.90
19552;DHT22;9921;47.186;9.778;2023-11-19T05:40:48;8.10;99.90
19552;DHT22;9921;47.186;9.778;2023-11-19T05:43:15;8.10;99.90
19552;DHT22;9921;47.186;9.778;2023-11-19T05:45:42;8.00;99.90
19552;DHT22;9921;47.186;9.778;2023-11-19T05:48:09;8.10;99.90
19552;DHT22;9921;47.186;9.778;2023-11-19T05:50:36;8.00;99.90
19552;DHT22;9921;47.186;9.778;2023-11-19T05:53:03;8.00;99.90
19552;DHT22;9921;47.186;9.778;2023-11-19T05:55:36;8.10;99.90
19552;DHT22;9921;47.186;9.778;2023-11-19T05:58:10;8.10;99.90
19552;DHT22;9921;47.186;9.778;2023-11-19T06:00:37;8.10;99.90
19552;DHT22;9921;47.186;9.778;2023-11-19T06:03:04;8.10;99.90
19552;DHT22;9921;47.186;9.778;2023-11-19T06:05:31;8.10;99.90
19552;DHT22;9921;47.186;9.778;2023-11-19T06:07:58;8.10;99.90
19552;DHT22;9921;47.186;9.778;2023-11-19T06:10:25;8.10;99.90
19552;DHT22;9921;47.186;9.778;2023-11-19T06:12:57;8.10;99.90
19552;DHT22;9921;47.186;9.778;2023-11-19T06:15:25;8.10;99.90
19552;DHT22;9921;47.186;9.778;2023-11-19T06:17:53;8.10;99.90
19552;DHT22;9921;47.186;9.778;2023-11-19T06:20:20;8.10;99.90
19552;DHT22;9921;47.186;9.778;2023-11-19T06:22:47;8.10;99.90
19552;DHT22;9921;47.186;9.778;2023-11-19T06:25:14;8.20;99.90
19552;DHT22;9921;47.186;9.778;2023-11-19T06:27:41;8.20;99.90
19552;DHT22;9921;47.186;9.778;2023-11-19T06:30:10;8.20;99.90
19552;DHT22;9921;47.186;9.778;2023-11-19T06:32:37;8.20;99.90
19552;DHT22;9921;47.186;9.778;2023-11-19T06:35:05;8.20;99.90
19552;DHT22;9921;47.186;9.778;2023-11-19T06:37:32;8.20;99.90
19552;DHT22;9921;47.186;9.778;2023-11-19T06:39:59;8.20;99.90
19552;DHT22;9921;47.186;9.778;2023-11-19T06:42:26;8.20;99.90
19552;DHT22;9921;47.186;9.778;2023-11-19T06:44:53;8.20;99.90
19552;DHT22;9921;47.186;9.778;2023-11-19T06:47:25;8.20;99.90
19552;DHT22;9921;47.186;9.778;2023-11-19T06:49:52;8.20;99.90
19552;DHT22;9921;47.186;9.778;2023-11-19T06:52:19;8.20;99.90
19552;DHT22;9921;47.186;9.778;2023-11-19T06:54:45;8.20;99.90
19552;DHT22;9921;47.186;9.778;2023-11-19T06:57:12;8.20;99.90
19552;DHT22;9921;47.186;9.778;2023-11-19T06:59:39;8.30;99.90
19552;DHT22;9921;47.186;9.778;2023-11-19T07:02:06;8.20;99.90
19552;DHT22;9921;47.186;9.778;2023-11-19T07:04:35;8.30;99.90
19552;DHT22;9921;47.186;9.778;2023-11-19T07:07:02;8.20;99.90
19552;DHT22;9921;47.186;9.778;2023-11-19T07:09:31;8.30;99.90
19552;DHT22;9921;47.186;9.778;2023-11-19T07:11:58;8.20;99.90
19552;DHT22;9921;47.186;9.778;2023-11-19T07:14:25;8.20;99.90
19552;DHT22;9921;47.186;9.778;2023-11-19T07:16:52;8.20;99.90
19552;DHT22;9921;47.186;9.778;2023-11-19T07:19:19;8.30;99.90
19552;DHT22;9921;47.186;9.778;2023-11-19T07:21:47;8.30;99.90
19552;DHT22;9921;47.186;9.778;2023-11-19T07:24:14;8.30;99.90
19552;DHT22;9921;47.186;9.778;2023-11-19T07:26:43;8.30;99.90
19552;DHT22;9921;47.186;9.778;2023-11-19T07:29:10;8.30;99.90
19552;DHT22;9921;47.186;9.778;2023-11-19T07:31:37;8.40;99.90
19552;DHT22;9921;47.186;9.778;2023-11-19T07:34:04;8.40;99.90
19552;DHT22;9921;47.186;9.778;2023-11-19T07:36:32;8.40;99.90
19552;DHT22;9921;47.186;9.778;2023-11-19T07:39:00;8.50;99.90
19552;DHT22;9921;47.186;9.778;2023-11-19T07:41:27;8.50;99.90
19552;DHT22;9921;47.186;9.778;2023-11-19T07:43:54;8.60;99.90
19552;DHT22;9921;47.186;9.778;2023-11-19T07:46:21;8.60;99.90
19552;DHT22;9921;47.186;9.778;2023-11-19T07:48:48;8.70;99.90
19552;DHT22;9921;47.186;9.778;2023-11-19T07:51:15;8.70;99.90
19552;DHT22;9921;47.186;9.778;2023-11-19T07:53:42;8.70;99.90
19552;DHT22;9921;47.186;9.778;2023-11-19T07:56:11;8.80;99.90
19552;DHT22;9921;47.186;9.778;2023-11-19T07:58:38;8.80;99.90
19552;DHT22;9921;47.186;9.778;2023-11-19T08:01:05;8.90;99.90
19552;DHT22;9921;47.186;9.778;2023-11-19T08:03:32;8.90;99.90
19552;DHT22;9921;47.186;9.778;2023-11-19T08:06:00;9.00;99.90
19552;DHT22;9921;47.186;9.778;2023-11-19T08:08:27;9.00;99.90
19552;DHT22;9921;47.186;9.778;2023-11-19T08:10:55;8.90;99.90
19552;DHT22;9921;47.186;9.778;2023-11-19T08:13:24;8.90;99.90
19552;DHT22;9921;47.186;9.778;2023-11-19T08:15:51;8.90;99.90
19552;DHT22;9921;47.186;9.778;2023-11-19T08:18:18;8.90;99.90
19552;DHT22;9921;47.186;9.778;2023-11-19T08:20:45;9.00;99.90
19552;DHT22;9921;47.186;9.778;2023-11-19T08:23:14;9.00;99.90
19552;DHT22;9921;47.186;9.778;2023-11-19T08:25:41;9.10;99.90
19552;DHT22;9921;47.186;9.778;2023-11-19T08:28:08;9.10;99.90
19552;DHT22;9921;47.186;9.778;2023-11-19T08:30:36;9.20;99.90
19552;DHT22;9921;47.186;9.778;2023-11-19T08:33:03;9.20;99.90
19552;DHT22;9921;47.186;9.778;2023-11-19T08:35:31;9.20;99.90
19552;DHT22;9921;47.186;9.778;2023-11-19T08:37:58;9.30;99.90
19552;DHT22;9921;47.186;9.778;2023-11-19T08:40:25;9.30;99.90
19552;DHT22;9921;47.186;9.778;2023-11-19T08:42:52;9.40;99.90
19552;DHT22;9921;47.186;9.778;2023-11-19T08:45:18;9.40;99.90
19552;DHT22;9921;47.186;9.778;2023-11-19T08:47:46;9.50;99.90
19552;DHT22;9921;47.186;9.778;2023-11-19T08:50:13;9.60;99.90
19552;DHT22;9921;47.186;9.778;2023-11-19T08:52:40;9.60;99.90
19552;DHT22;9921;47.186;9.778;2023-11-19T08:55:07;9.60;99.90
19552;DHT22;9921;47.186;9.778;2023-11-19T08:57:35;9.70;99.90
19552;DHT22;9921;47.186;9.778;2023-11-19T09:00:03;9.80;99.90
19552;DHT22;9921;47.186;9.778;2023-11-19T09:02:33;9.70;99.90
19552;DHT22;9921;47.186;9.778;2023-11-19T09:05:01;9.70;99.90
19552;DHT22;9921;47.186;9.778;2023-11-19T09:07:28;9.70;99.90
19552;DHT22;9921;47.186;9.778;2023-11-19T09:09:55;9.70;99.90
19552;DHT22;9921;47.186;9.778;2023-11-19T09:12:22;9.70;99.90
19552;DHT22;9921;47.186;9.778;2023-11-19T09:14:49;9.70;99.90
19552;DHT22;9921;47.186;9.778;2023-11-19T09:17:16;9.70;99.90
19552;DHT22;9921;47.186;9.778;2023-11-19T09:19:44;9.80;99.90
19552;DHT22;9921;47.186;9.778;2023-11-19T09:22:12;9.80;99.90
19552;DHT22;9921;47.186;9.778;2023-11-19T09:24:40;9.80;99.90
19552;DHT22;9921;47.186;9.778;2023-11-19T09:27:08;9.80;99.90
19552;DHT22;9921;47.186;9.778;2023-11-19T09:29:34;9.80;99.90
19552;DHT22;9921;47.186;9.778;2023-11-19T09:32:02;9.90;99.90
19552;DHT22;9921;47.186;9.778;2023-11-19T09:34:28;9.90;99.90
19552;DHT22;9921;47.186;9.778;2023-11-19T09:36:55;10.00;99.90
19552;DHT22;9921;47.186;9.778;2023-11-19T09:39:24;10.00;99.90
19552;DHT22;9921;47.186;9.778;2023-11-19T09:41:51;10.00;99.90
19552;DHT22;9921;47.186;9.778;2023-11-19T09:44:18;10.10;99.90
19552;DHT22;9921;47.186;9.778;2023-11-19T09:46:45;10.10;99.90
19552;DHT22;9921;47.186;9.778;2023-11-19T09:49:14;10.20;99.90
19552;DHT22;9921;47.186;9.778;2023-11-19T09:51:45;10.20;99.90
19552;DHT22;9921;47.186;9.778;2023-11-19T09:54:12;10.20;99.90
19552;DHT22;9921;47.186;9.778;2023-11-19T09:56:40;10.30;99.90
19552;DHT22;9921;47.186;9.778;2023-11-19T09:59:08;10.30;99.90
19552;DHT22;9921;47.186;9.778;2023-11-19T10:01:38;10.40;99.90
19552;DHT22;9921;47.186;9.778;2023-11-19T10:04:06;10.40;99.90
19552;DHT22;9921;47.186;9.778;2023-11-19T10:06:33;10.50;99.90
19552;DHT22;9921;47.186;9.778;2023-11-19T10:09:00;10.50;99.90
19552;DHT22;9921;47.186;9.778;2023-11-19T10:11:27;10.50;99.90
19552;DHT22;9921;47.186;9.778;2023-11-19T10:13:55;10.50;99.90
19552;DHT22;9921;47.186;9.778;2023-11-19T10:16:28;10.50;99.90
19552;DHT22;9921;47.186;9.778;2023-11-19T10:18:56;10.60;99.90
19552;DHT22;9921;47.186;9.778;2023-11-19T10:21:23;10.60;99.90
19552;DHT22;9921;47.186;9.778;2023-11-19T10:23:54;10.60;99.90
19552;DHT22;9921;47.186;9.778;2023-11-19T10:26:23;10.60;99.90
19552;DHT22;9921;47.186;9.778;2023-11-19T10:28:50;10.70;99.90
19552;DHT22;9921;47.186;9.778;2023-11-19T10:31:19;10.70;99.90
19552;DHT22;9921;47.186;9.778;2023-11-19T10:33:50;10.70;99.90
19552;DHT22;9921;47.186;9.778;2023-11-19T10:36:17;10.80;99.90
19552;DHT22;9921;47.186;9.778;2023-11-19T10:38:52;10.80;99.90
19552;DHT22;9921;47.186;9.778;2023-11-19T10:41:27;10.80;99.90
19552;DHT22;9921;47.186;9.778;2023-11-19T10:43:53;10.80;99.90
19552;DHT22;9921;47.186;9.778;2023-11-19T10:46:22;10.80;99.90
19552;DHT22;9921;47.186;9.778;2023-11-19T10:48:49;10.80;99.90
19552;DHT22;9921;47.186;9.778;2023-11-19T10:51:19;10.80;99.90
19552;DHT22;9921;47.186;9.778;2023-11-19T10:53:48;10.80;99.90
19552;DHT22;9921;47.186;9.778;2023-11-19T10:56:16;10.80;99.90
19552;DHT22;9921;47.186;9.778;2023-11-19T10:58:45;10.80;99.90
19552;DHT22;9921;47.186;9.778;2023-11-19T11:01:18;10.90;99.90
19552;DHT22;9921;47.186;9.778;2023-11-19T11:03:47;10.90;99.90
19552;DHT22;9921;47.186;9.778;2023-11-19T11:06:17;11.00;99.90
19552;DHT22;9921;47.186;9.778;2023-11-19T11:08:46;11.10;99.90
19552;DHT22;9921;47.186;9.778;2023-11-19T11:11:16;11.20;99.90
19552;DHT22;9921;47.186;9.778;2023-11-19T11:13:47;11.30;99.90
19552;DHT22;9921;47.186;9.778;2023-11-19T11:16:18;11.30;99.90
19552;DHT22;9921;47.186;9.778;2023-11-19T11:18:48;11.30;99.90
19552;DHT22;9921;47.186;9.778;2023-11-19T11:21:21;11.20;99.90
19552;DHT22;9921;47.186;9.778;2023-11-19T11:24:21;11.20;99.90
19552;DHT22;9921;47.186;9.778;2023-11-19T11:27:09;11.20;99.90
19552;DHT22;9921;47.186;9.778;2023-11-19T11:29:46;11.10;99.90
19552;DHT22;9921;47.186;9.778;2023-11-19T11:32:24;11.20;99.90
19552;DHT22;9921;47.186;9.778;2023-11-19T11:35:09;11.20;99.90
19552;DHT22;9921;47.186;9.778;2023-11-19T11:37:44;11.20;99.90
19552;DHT22;9921;47.186;9.778;2023-11-19T11:40:14;11.30;99.90
19552;DHT22;9921;47.186;9.778;2023-11-19T11:42:41;11.30;99.90
19552;DHT22;9921;47.186;9.778;2023-11-19T11:45:09;11.30;99.90
19552;DHT22;9921;47.186;9.778;2023-11-19T11:48:14;11.40;99.90
19552;DHT22;9921;47.186;9.778;2023-11-19T11:50:54;11.40;99.90
19552;DHT22;9921;47.186;9.778;2023-11-19T11:53:23;11.40;99.90
19552;DHT22;9921;47.186;9.778;2023-11-19T11:55:55;11.40;99.90
19552;DHT22;9921;47.186;9.778;2023-11-19T11:58:35;11.40;99.90
19552;DHT22;9921;47.186;9.778;2023-11-19T12:01:04;11.50;99.90
19552;DHT22;9921;47.186;9.778;2023-11-19T12:03:34;11.60;99.90
19552;DHT22;9921;47.186;9.778;2023-11-19T12:06:03;11.60;99.90
19552;DHT22;9921;47.186;9.778;2023-11-19T12:08:30;11.60;99.90
19552;DHT22;9921;47.186;9.778;2023-11-19T12:10:57;11.60;99.90
19552;DHT22;9921;47.186;9.778;2023-11-19T12:13:54;11.60;99.90
19552;DHT22;9921;47.186;9.778;2023-11-19T12:16:24;11.70;99.90
19552;DHT22;9921;47.186;9.778;2023-11-19T12:18:53;11.80;99.90
19552;DHT22;9921;47.186;9.778;2023-11-19T12:21:31;11.80;99.90
19552;DHT22;9921;47.186;9.778;2023-11-19T12:23:59;11.80;99.90
19552;DHT22;9921;47.186;9.778;2023-11-19T12:26:35;11.70;99.90
19552;DHT22;9921;47.186;9.778;2023-11-19T12:29:02;11.70;99.90
19552;DHT22;9921;47.186;9.778;2023-11-19T12:31:33;11.70;99.90
19552;DHT22;9921;47.186;9.778;2023-11-19T12:34:08;11.70;99.90
19552;DHT22;9921;47.186;9.778;2023-11-19T12:36:39;11.80;99.90
19552;DHT22;9921;47.186;9.778;2023-11-19T12:39:07;11.80;99.90
19552;DHT22;9921;47.186;9.778;2023-11-19T12:41:49;11.80;99.90
19552;DHT22;9921;47.186;9.778;2023-11-19T12:44:16;11.90;99.90
19552;DHT22;9921;47.186;9.778;2023-11-19T12:46:43;11.90;99.90
19552;DHT22;9921;47.186;9.778;2023-11-19T12:49:11;12.00;99.90
19552;DHT22;9921;47.186;9.778;2023-11-19T12:51:40;12.10;99.90
19552;DHT22;9921;47.186;9.778;2023-11-19T12:54:07;12.10;99.90
19552;DHT22;9921;47.186;9.778;2023-11-19T12:56:34;12.10;99.90
19552;DHT22;9921;47.186;9.778;2023-11-19T12:59:10;12.00;99.90
19552;DHT22;9921;47.186;9.778;2023-11-19T13:01:38;11.90;99.90
19552;DHT22;9921;47.186;9.778;2023-11-19T13:04:16;11.90;99.90
19552;DHT22;9921;47.186;9.778;2023-11-19T13:06:46;11.90;99.90
19552;DHT22;9921;47.186;9.778;2023-11-19T13:09:22;11.90;99.90
19552;DHT22;9921;47.186;9.778;2023-11-19T13:11:50;11.90;99.90
19552;DHT22;9921;47.186;9.778;2023-11-19T13:14:18;11.90;99.90
19552;DHT22;9921;47.186;9.778;2023-11-19T13:16:45;11.80;99.90
19552;DHT22;9921;47.186;9.778;2023-11-19T13:19:13;11.70;99.90
19552;DHT22;9921;47.186;9.778;2023-11-19T13:21:42;11.70;99.90
19552;DHT22;9921;47.186;9.778;2023-11-19T13:24:12;11.70;99.90
19552;DHT22;9921;47.186;9.778;2023-11-19T13:26:39;11.70;99.90
19552;DHT22;9921;47.186;9.778;2023-11-19T13:29:06;11.60;99.90
19552;DHT22;9921;47.186;9.778;2023-11-19T13:31:34;11.60;99.90
19552;DHT22;9921;47.186;9.778;2023-11-19T13:34:01;11.60;99.90
19552;DHT22;9921;47.186;9.778;2023-11-19T13:36:27;11.60;99.90
19552;DHT22;9921;47.186;9.778;2023-11-19T13:38:54;11.60;99.90
19552;DHT22;9921;47.186;9.778;2023-11-19T13:41:26;11.50;99.90
19552;DHT22;9921;47.186;9.778;2023-11-19T13:43:53;11.50;99.90
19552;DHT22;9921;47.186;9.778;2023-11-19T13:46:20;11.50;99.90
19552;DHT22;9921;47.186;9.778;2023-11-19T13:48:47;11.50;99.90
19552;DHT22;9921;47.186;9.778;2023-11-19T13:51:15;11.50;99.90
19552;DHT22;9921;47.186;9.778;2023-11-19T13:53:42;11.60;99.90
19552;DHT22;9921;47.186;9.778;2023-11-19T13:56:09;11.60;99.90
19552;DHT22;9921;47.186;9.778;2023-11-19T13:58:38;11.60;99.90
19552;DHT22;9921;47.186;9.778;2023-11-19T14:01:06;11.70;99.90
19552;DHT22;9921;47.186;9.778;2023-11-19T14:03:33;11.70;99.90
19552;DHT22;9921;47.186;9.778;2023-11-19T14:06:00;11.60;99.90
19552;DHT22;9921;47.186;9.778;2023-11-19T14:08:28;11.60;99.90
19552;DHT22;9921;47.186;9.778;2023-11-19T14:10:54;11.60;99.90
19552;DHT22;9921;47.186;9.778;2023-11-19T14:13:22;11.60;99.90
19552;DHT22;9921;47.186;9.778;2023-11-19T14:15:50;11.60;99.90
19552;DHT22;9921;47.186;9.778;2023-11-19T14:18:18;11.60;99.90
19552;DHT22;9921;47.186;9.778;2023-11-19T14:20:44;11.60;99.90
19552;DHT22;9921;47.186;9.778;2023-11-19T14:23:11;11.60;99.90
19552;DHT22;9921;47.186;9.778;2023-11-19T14:25:38;11.60;99.90
19552;DHT22;9921;47.186;9.778;2023-11-19T14:28:05;11.60;99.90
19552;DHT22;9921;47.186;9.778;2023-11-19T14:30:33;11.60;99.90
19552;DHT22;9921;47.186;9.778;2023-11-19T14:33:01;11.60;99.90
19552;DHT22;9921;47.186;9.778;2023-11-19T14:35:28;11.60;99.90
19552;DHT22;9921;47.186;9.778;2023-11-19T14:37:58;11.60;99.90
19552;DHT22;9921;47.186;9.778;2023-11-19T14:40:25;11.60;99.90
19552;DHT22;9921;47.186;9.778;2023-11-19T14:42:51;11.60;99.90
19552;DHT22;9921;47.186;9.778;2023-11-19T14:45:18;11.50;99.90
19552;DHT22;9921;47.186;9.778;2023-11-19T14:47:45;11.50;99.90
19552;DHT22;9921;47.186;9.778;2023-11-19T14:50:15;11.50;99.90
19552;DHT22;9921;47.186;9.778;2023-11-19T14:52:42;11.50;99.90
19552;DHT22;9921;47.186;9.778;2023-11-19T14:55:09;11.50;99.90
19552;DHT22;9921;47.186;9.778;2023-11-19T14:57:36;11.50;99.90
19552;DHT22;9921;47.186;9.778;2023-11-19T15:00:05;11.50;99.90
19552;DHT22;9921;47.186;9.778;2023-11-19T15:02:39;11.50;99.90
19552;DHT22;9921;47.186;9.778;2023-11-19T15:05:05;11.50;99.90
19552;DHT22;9921;47.186;9.778;2023-11-19T15:07:33;11.40;99.90
19552;DHT22;9921;47.186;9.778;2023-11-19T15:10:01;11.40;99.90
19552;DHT22;9921;47.186;9.778;2023-11-19T15:12:28;11.40;99.90
19552;DHT22;9921;47.186;9.778;2023-11-19T15:14:55;11.40;99.90
19552;DHT22;9921;47.186;9.778;2023-11-19T15:17:22;11.40;99.90
19552;DHT22;9921;47.186;9.778;2023-11-19T15:19:49;11.40;99.90
19552;DHT22;9921;47.186;9.778;2023-11-19T15:22:15;11.40;99.90
19552;DHT22;9921;47.186;9.778;2023-11-19T15:24:44;11.40;99.90
19552;DHT22;9921;47.186;9.778;2023-11-19T15:27:11;11.40;99.90
19552;DHT22;9921;47.186;9.778;2023-11-19T15:29:37;11.30;99.90
19552;DHT22;9921;47.186;9.778;2023-11-19T15:32:06;11.30;99.90
19552;DHT22;9921;47.186;9.778;2023-11-19T15:34:33;11.30;99.90
19552;DHT22;9921;47.186;9.778;2023-11-19T15:37:02;11.30;99.90
19552;DHT22;9921;47.186;9.778;2023-11-19T15:39:29;11.30;99.90
19552;DHT22;9921;47.186;9.778;2023-11-19T15:41:59;11.20;99.90
19552;DHT22;9921;47.186;9.778;2023-11-19T15:44:26;11.20;99.90
19552;DHT22;9921;47.186;9.778;2023-11-19T15:46:54;11.20;99.90
19552;DHT22;9921;47.186;9.778;2023-11-19T15:49:21;11.20;99.90
19552;DHT22;9921;47.186;9.778;2023-11-19T15:51:48;11.20;99.90
19552;DHT22;9921;47.186;9.778;2023-11-19T15:54:15;11.20;99.90
19552;DHT22;9921;47.186;9.778;2023-11-19T15:56:41;11.10;99.90
19552;DHT22;9921;47.186;9.778;2023-11-19T15:59:10;11.10;99.90
19552;DHT22;9921;47.186;9.778;2023-11-19T16:01:36;11.10;99.90